Time;durP1;ratioP1;P1;durP2;ratioP2;P2;SDS_P1;SDS_P2;PMS_P1;PMS_P2;Temp;Humidity;BMP_temperature;BMP_pressure;BME280_temperature;BME280_humidity;BME280_pressure;Samples;Min_cycle;Max_cycle;Signal;HPM_P1;HPM_P2
2023/07/02 00:02:08;;;;;;;9.98;7.57;;;563.20;2432.00;;;;;;5046680;28;20045;-62
2023/07/02 00:04:34;;;;;;;8.57;7.32;;;563.20;2432.00;;;;;;5050093;28;20029;-65
2023/07/02 00:07:00;;;;;;;9.23;7.13;;;563.20;2432.00;;;;;;5049572;28;20100;-64
2023/07/02 00:09:26;;;;;;;9.77;7.43;;;563.30;2432.00;;;;;;5049774;28;20041;-65
2023/07/02 00:11:51;;;;;;;11.77;8.88;;;563.30;2432.00;;;;;;5049625;28;20032;-62
2023/07/02 00:14:17;;;;;;;13.48;8.35;;;563.30;2432.00;;;;;;5049237;28;20028;-63
2023/07/02 00:16:46;;;;;;;10.63;8.40;;;563.20;2432.00;;;;;;5049096;28;20052;-62
2023/07/02 00:19:14;;;;;;;9.15;7.93;;;538.50;2406.40;;;;;;5049560;28;20029;-66
2023/07/02 00:21:40;;;;;;;16.10;8.52;;;538.50;2406.40;;;;;;5048928;28;20047;-63
2023/07/02 00:24:09;;;;;;;12.10;8.32;;;538.40;2406.40;;;;;;5048980;28;20112;-63
2023/07/02 00:26:35;;;;;;;9.57;7.82;;;538.40;2406.40;;;;;;5049407;28;20471;-63
2023/07/02 00:29:01;;;;;;;11.10;8.95;;;538.30;2406.40;;;;;;5049068;28;20494;-63
2023/07/02 00:31:26;;;;;;;10.63;8.80;;;538.30;2406.40;;;;;;5035633;28;20033;-62
2023/07/02 00:33:52;;;;;;;14.60;8.98;;;538.40;2406.40;;;;;;5049263;28;20429;-63
2023/07/02 00:36:18;;;;;;;13.35;8.57;;;538.30;2406.40;;;;;;5049286;28;20040;-63
2023/07/02 00:38:47;;;;;;;11.00;8.35;;;538.30;2406.40;;;;;;5048702;28;20056;-63
2023/07/02 00:41:13;;;;;;;10.07;7.78;;;538.30;2406.40;;;;;;5049156;28;20013;-63
2023/07/02 00:43:43;;;;;;;11.20;8.65;;;538.20;2406.40;;;;;;5048754;28;20024;-63
2023/07/02 00:46:25;;;;;;;11.18;8.65;;;538.20;2406.40;;;;;;5048595;28;20029;-63
2023/07/02 00:48:53;;;;;;;10.30;8.70;;;538.10;2406.40;;;;;;5048500;28;20475;-63
2023/07/02 00:51:24;;;;;;;10.68;8.43;;;538.00;2406.40;;;;;;5048844;28;20123;-63
2023/07/02 00:53:51;;;;;;;11.60;8.55;;;538.00;2406.40;;;;;;5048582;28;20033;-62
2023/07/02 00:56:18;;;;;;;10.38;8.30;;;538.00;2406.40;;;;;;5048825;28;20043;-62
2023/07/02 00:58:48;;;;;;;11.82;9.00;;;537.90;2406.40;;;;;;5049067;28;20036;-62
2023/07/02 01:01:21;;;;;;;10.82;8.50;;;538.00;2406.40;;;;;;5049177;28;20068;-64
2023/07/02 01:03:53;;;;;;;9.93;8.43;;;538.00;2406.40;;;;;;5048778;28;20048;-65
2023/07/02 01:06:24;;;;;;;12.00;8.63;;;538.00;2406.40;;;;;;5037749;28;20037;-63
2023/07/02 01:08:52;;;;;;;14.40;8.27;;;538.00;2406.40;;;;;;5047411;28;20033;-62
2023/07/02 01:11:20;;;;;;;10.45;8.43;;;538.00;2406.40;;;;;;5049011;28;20091;-63
2023/07/02 01:13:46;;;;;;;11.40;9.05;;;538.10;2406.40;;;;;;5042614;28;20034;-62
2023/07/02 01:16:12;;;;;;;9.55;7.78;;;538.10;2406.40;;;;;;5042187;28;20459;-64
2023/07/02 01:18:38;;;;;;;10.52;8.73;;;538.10;2406.40;;;;;;5049118;28;20050;-62
2023/07/02 01:21:06;;;;;;;11.85;9.35;;;538.10;2406.40;;;;;;5048785;28;20378;-63
2023/07/02 01:23:32;;;;;;;10.90;9.35;;;538.10;2406.40;;;;;;5022810;28;20067;-63
2023/07/02 01:25:59;;;;;;;11.50;9.10;;;538.10;2406.40;;;;;;5048862;28;20029;-64
2023/07/02 01:28:25;;;;;;;10.15;8.23;;;538.00;2406.40;;;;;;5048811;28;20029;-63
2023/07/02 01:30:51;;;;;;;12.77;9.32;;;538.00;2406.40;;;;;;5034392;28;20124;-64
2023/07/02 01:33:17;;;;;;;17.70;8.52;;;537.90;2406.40;;;;;;5028652;28;20129;-63
2023/07/02 01:35:43;;;;;;;12.63;8.40;;;537.80;2406.40;;;;;;5043141;28;20051;-64
2023/07/02 01:38:08;;;;;;;10.63;9.38;;;537.90;2406.40;;;;;;5048011;28;20041;-64
2023/07/02 01:40:34;;;;;;;10.60;8.70;;;537.80;2406.40;;;;;;5048512;28;20036;-63
2023/07/02 01:43:00;;;;;;;10.82;8.48;;;537.80;2406.40;;;;;;5048298;28;20021;-64
2023/07/02 01:45:26;;;;;;;11.95;8.82;;;537.80;2406.40;;;;;;5048094;28;20029;-65
2023/07/02 01:47:51;;;;;;;15.05;8.88;;;537.70;2406.40;;;;;;5048664;28;20021;-63
2023/07/02 01:50:17;;;;;;;11.70;9.05;;;537.70;2406.40;;;;;;5047645;28;20037;-63
2023/07/02 01:52:43;;;;;;;12.60;9.35;;;537.60;2406.40;;;;;;5036155;28;20345;-63
2023/07/02 01:55:09;;;;;;;12.95;8.90;;;512.90;2380.80;;;;;;5048195;28;20025;-63
2023/07/02 01:57:34;;;;;;;10.88;9.70;;;512.90;2380.80;;;;;;5048658;28;20020;-64
2023/07/02 02:00:00;;;;;;;10.93;9.05;;;537.60;2406.40;;;;;;5048295;28;20434;-64
2023/07/02 02:02:26;;;;;;;11.73;8.13;;;512.90;2380.80;;;;;;5050360;28;20379;-63
2023/07/02 02:04:52;;;;;;;12.52;9.20;;;512.90;2380.80;;;;;;5051876;28;20029;-63
2023/07/02 02:07:17;;;;;;;11.35;8.80;;;512.90;2380.80;;;;;;5051482;28;20379;-64
2023/07/02 02:09:43;;;;;;;11.23;8.95;;;512.90;2380.80;;;;;;5052253;28;20041;-62
2023/07/02 02:12:10;;;;;;;11.30;8.73;;;512.90;2380.80;;;;;;5045830;28;20060;-62
2023/07/02 02:14:35;;;;;;;17.42;9.05;;;512.90;2380.80;;;;;;5044336;28;20033;-64
2023/07/02 02:17:01;;;;;;;11.70;9.02;;;512.80;2380.80;;;;;;5051763;28;20029;-63
2023/07/02 02:19:27;;;;;;;11.70;8.30;;;512.80;2380.80;;;;;;5051606;28;20021;-64
2023/07/02 02:21:52;;;;;;;15.57;9.73;;;512.50;2380.80;;;;;;5051107;28;20537;-64
2023/07/02 02:24:18;;;;;;;13.15;9.10;;;512.50;2380.80;;;;;;5051319;28;20071;-64
2023/07/02 02:26:44;;;;;;;12.57;9.73;;;512.50;2380.80;;;;;;5051819;28;20051;-63
2023/07/02 02:29:09;;;;;;;10.82;8.70;;;512.50;2380.80;;;;;;5051559;28;20025;-63
2023/07/02 02:31:35;;;;;;;13.05;10.25;;;512.50;2380.80;;;;;;5051459;28;20021;-64
2023/07/02 02:34:01;;;;;;;13.68;9.70;;;512.30;2380.80;;;;;;5051189;28;20025;-63
2023/07/02 02:36:26;;;;;;;12.77;9.55;;;512.30;2380.80;;;;;;5050992;28;20029;-63
2023/07/02 02:38:52;;;;;;;12.32;9.02;;;512.30;2380.80;;;;;;5051265;28;20049;-64
2023/07/02 02:41:18;;;;;;;11.75;9.20;;;512.20;2380.80;;;;;;5051066;28;20100;-62
2023/07/02 02:43:43;;;;;;;11.73;8.40;;;512.30;2380.80;;;;;;5051269;28;20029;-62
2023/07/02 02:46:11;;;;;;;13.40;9.88;;;512.20;2380.80;;;;;;5050856;28;20036;-63
2023/07/02 02:48:36;;;;;;;12.30;8.70;;;512.20;2380.80;;;;;;5051248;28;20032;-65
2023/07/02 02:51:03;;;;;;;11.82;9.40;;;512.20;2380.80;;;;;;5051139;28;20033;-64
2023/07/02 02:53:29;;;;;;;11.13;9.13;;;512.20;2380.80;;;;;;5050699;28;20018;-63
2023/07/02 02:55:55;;;;;;;12.40;9.20;;;512.20;2380.80;;;;;;5050930;28;20758;-62
2023/07/02 02:58:22;;;;;;;11.88;7.80;;;512.20;2380.80;;;;;;5038487;28;20017;-65
2023/07/02 03:00:48;;;;;;;12.63;8.00;;;512.10;2380.80;;;;;;5050529;28;20028;-63
2023/07/02 03:03:14;;;;;;;11.77;9.30;;;512.00;2380.80;;;;;;5051154;28;20025;-65
2023/07/02 03:05:40;;;;;;;12.43;9.15;;;487.30;2380.80;;;;;;5050510;28;20397;-64
2023/07/02 03:08:06;;;;;;;12.60;9.15;;;512.00;2380.80;;;;;;5050237;28;20041;-65
2023/07/02 03:10:32;;;;;;;12.70;9.30;;;512.10;2380.80;;;;;;5037065;28;20120;-63
2023/07/02 03:12:58;;;;;;;12.10;8.43;;;512.10;2380.80;;;;;;5050179;28;20368;-65
2023/07/02 03:15:23;;;;;;;14.80;9.15;;;512.10;2380.80;;;;;;5050003;28;20033;-65
2023/07/02 03:17:49;;;;;;;11.18;8.38;;;512.10;2380.80;;;;;;5050661;28;20071;-64
2023/07/02 03:20:15;;;;;;;10.75;9.63;;;512.10;2380.80;;;;;;5050686;28;20056;-63
2023/07/02 03:22:40;;;;;;;10.90;8.32;;;512.20;2380.80;;;;;;5050254;28;20023;-63
2023/07/02 03:25:06;;;;;;;11.05;8.35;;;512.10;2380.80;;;;;;5049945;28;20035;-64
2023/07/02 03:27:32;;;;;;;11.82;8.98;;;512.20;2380.80;;;;;;5050588;28;20352;-63
2023/07/02 03:29:58;;;;;;;10.50;9.40;;;512.20;2380.80;;;;;;5050006;28;20098;-64
2023/07/02 03:32:24;;;;;;;11.88;9.18;;;512.10;2380.80;;;;;;5050363;28;20067;-64
2023/07/02 03:34:49;;;;;;;11.57;9.07;;;512.20;2380.80;;;;;;5049786;28;20116;-64
2023/07/02 03:37:15;;;;;;;11.27;8.23;;;512.20;2380.80;;;;;;5049890;28;20056;-64
2023/07/02 03:39:41;;;;;;;11.55;8.95;;;512.30;2380.80;;;;;;5050428;28;20033;-63
2023/07/02 03:42:06;;;;;;;12.73;8.88;;;512.40;2380.80;;;;;;5050139;28;20116;-63
2023/07/02 03:44:32;;;;;;;11.15;8.70;;;512.40;2380.80;;;;;;5049918;28;20017;-63
2023/07/02 03:46:58;;;;;;;12.30;9.13;;;512.50;2380.80;;;;;;5049958;28;20423;-63
2023/07/02 03:49:24;;;;;;;10.68;8.80;;;512.60;2380.80;;;;;;5049415;28;20387;-63
2023/07/02 03:51:50;;;;;;;12.35;9.70;;;512.70;2380.80;;;;;;5049606;28;20102;-63
2023/07/02 03:54:15;;;;;;;11.60;9.05;;;512.80;2380.80;;;;;;5049439;28;20028;-64
2023/07/02 03:56:41;;;;;;;12.43;8.68;;;512.90;2380.80;;;;;;5049727;28;20017;-63
2023/07/02 03:59:07;;;;;;;11.95;8.68;;;537.60;2406.40;;;;;;5036484;28;20021;-63
2023/07/02 04:01:32;;;;;;;13.00;8.60;;;537.60;2406.40;;;;;;5049465;28;20071;-63
2023/07/02 04:03:58;;;;;;;10.88;8.88;;;537.70;2406.40;;;;;;5049591;28;20364;-64
2023/07/02 04:06:24;;;;;;;11.90;8.65;;;537.80;2406.40;;;;;;5049884;28;20061;-63
2023/07/02 04:08:49;;;;;;;11.73;9.10;;;537.80;2406.40;;;;;;5048965;28;20029;-63
2023/07/02 04:11:15;;;;;;;11.95;9.05;;;537.80;2406.40;;;;;;5049945;28;20056;-63
2023/07/02 04:13:41;;;;;;;12.52;8.55;;;537.80;2406.40;;;;;;5044214;28;20017;-63
2023/07/02 04:16:07;;;;;;;13.18;8.68;;;537.90;2406.40;;;;;;5040460;28;20041;-64
2023/07/02 04:18:32;;;;;;;13.10;9.57;;;537.90;2406.40;;;;;;5049340;28;20414;-63
2023/07/02 04:20:58;;;;;;;11.75;8.90;;;538.00;2406.40;;;;;;5049437;28;20029;-63
2023/07/02 04:23:25;;;;;;;14.25;8.07;;;538.20;2406.40;;;;;;5048345;28;20027;-63
2023/07/02 04:25:50;;;;;;;14.32;8.70;;;538.40;2406.40;;;;;;5049461;28;20023;-63
2023/07/02 04:28:17;;;;;;;12.10;8.65;;;563.20;2432.00;;;;;;5048933;28;20025;-64
2023/07/02 04:30:43;;;;;;;12.00;8.95;;;563.60;2432.00;;;;;;5049445;28;20128;-63
2023/07/02 04:33:08;;;;;;;12.73;8.68;;;563.90;2432.00;;;;;;5049203;28;20017;-63
2023/07/02 04:35:34;;;;;;;9.98;8.77;;;564.10;2432.00;;;;;;5049278;28;20475;-63
2023/07/02 04:38:03;;;;;;;13.23;9.63;;;589.10;2432.00;;;;;;5048454;28;20049;-65
2023/07/02 04:40:29;;;;;;;12.50;9.32;;;614.40;2432.00;;;;;;5049103;28;20491;-63
2023/07/02 04:42:57;;;;;;;12.20;8.65;;;640.10;2432.00;;;;;;5043483;28;20043;-63
2023/07/02 04:45:35;;;;;;;11.43;8.20;;;640.40;2432.00;;;;;;5042381;28;20029;-63
2023/07/02 04:48:01;;;;;;;9.82;8.27;;;640.10;2432.00;;;;;;5047785;28;20021;-64
2023/07/02 04:50:26;;;;;;;10.13;8.85;;;640.60;2432.00;;;;;;5048144;28;20123;-63
2023/07/02 04:52:52;;;;;;;11.52;8.98;;;640.40;2432.00;;;;;;5036847;28;20025;-65
2023/07/02 04:55:18;;;;;;;11.13;9.25;;;640.20;2432.00;;;;;;5049216;28;20032;-62
2023/07/02 04:57:44;;;;;;;16.67;9.13;;;716.90;2432.00;;;;;;5048924;28;20455;-61
2023/07/02 05:00:10;;;;;;;9.07;8.18;;;793.60;2099.20;;;;;;5035502;28;20025;-62
2023/07/02 05:02:36;;;;;;;9.25;8.35;;;845.20;1894.40;;;;;;5048987;28;20021;-63
2023/07/02 05:05:02;;;;;;;10.98;8.30;;;870.90;1715.20;;;;;;5049161;28;20035;-63
2023/07/02 05:07:28;;;;;;;11.52;8.60;;;870.90;1715.20;;;;;;5048681;28;20028;-62
2023/07/02 05:09:53;;;;;;;14.65;8.90;;;844.90;1792.00;;;;;;5048844;28;20041;-61
2023/07/02 05:12:19;;;;;;;10.65;8.30;;;870.60;1740.80;;;;;;5048440;28;20076;-64
2023/07/02 05:14:46;;;;;;;9.32;7.50;;;896.80;1612.80;;;;;;5049217;28;20021;-62
2023/07/02 05:17:14;;;;;;;9.30;8.40;;;845.70;1715.20;;;;;;5048789;28;20060;-62
2023/07/02 05:19:40;;;;;;;9.60;7.43;;;871.30;1638.40;;;;;;5048677;28;20027;-62
2023/07/02 05:22:06;;;;;;;8.90;7.97;;;870.70;1664.00;;;;;;5048332;28;20067;-62
2023/07/02 05:24:32;;;;;;;9.55;8.55;;;819.50;1766.40;;;;;;5048373;28;20048;-62
2023/07/02 05:26:57;;;;;;;9.80;7.35;;;768.90;1843.20;;;;;;5048785;28;20458;-62
2023/07/02 05:29:23;;;;;;;10.32;7.63;;;768.00;1920.00;;;;;;5048461;28;20387;-62
2023/07/02 05:31:49;;;;;;;8.07;7.28;;;742.80;1996.80;;;;;;5040053;28;20030;-61
2023/07/02 05:34:14;;;;;;;10.32;7.18;;;742.40;2022.40;;;;;;5030616;28;20135;-64
2023/07/02 05:36:40;;;;;;;8.95;7.18;;;717.10;2048.00;;;;;;5052031;28;20017;-63
2023/07/02 05:39:06;;;;;;;8.93;7.07;;;716.80;2048.00;;;;;;5052061;28;20525;-62
2023/07/02 05:41:31;;;;;;;8.60;7.07;;;716.80;2073.60;;;;;;5050856;28;20502;-62
2023/07/02 05:43:58;;;;;;;8.90;7.00;;;691.90;2073.60;;;;;;5038608;28;20036;-62
2023/07/02 05:46:24;;;;;;;11.93;7.13;;;691.90;2099.20;;;;;;5052466;28;20035;-64
2023/07/02 05:48:49;;;;;;;10.05;8.15;;;691.80;2073.60;;;;;;5040015;28;20156;-61
2023/07/02 05:51:21;;;;;;;10.18;7.60;;;691.90;2099.20;;;;;;5052163;28;20535;-61
2023/07/02 05:53:47;;;;;;;12.73;7.55;;;691.60;2099.20;;;;;;5051772;28;20097;-64
2023/07/02 05:56:12;;;;;;;9.98;7.22;;;691.80;2124.80;;;;;;5052040;28;20104;-60
2023/07/02 05:58:38;;;;;;;8.50;6.88;;;691.90;2124.80;;;;;;5051783;28;20029;-65
2023/07/02 06:01:05;;;;;;;8.68;7.30;;;692.10;2099.20;;;;;;5051734;28;20033;-63
2023/07/02 06:03:31;;;;;;;8.52;7.25;;;692.10;2073.60;;;;;;5051991;28;20025;-64
2023/07/02 06:05:57;;;;;;;7.82;7.00;;;716.80;2099.20;;;;;;5052448;28;20036;-59
2023/07/02 06:08:23;;;;;;;11.30;8.40;;;716.90;2099.20;;;;;;5051386;28;20029;-63
2023/07/02 06:10:49;;;;;;;9.50;8.40;;;716.90;2150.40;;;;;;5051670;28;20113;-61
2023/07/02 06:13:15;;;;;;;9.07;7.68;;;717.10;2124.80;;;;;;5051938;28;20021;-61
2023/07/02 06:15:41;;;;;;;10.60;8.80;;;716.90;2124.80;;;;;;5051783;28;20053;-61
2023/07/02 06:18:06;;;;;;;8.93;7.38;;;717.00;2124.80;;;;;;5051022;28;20423;-62
2023/07/02 06:20:32;;;;;;;11.52;7.47;;;717.10;2099.20;;;;;;5051832;28;20025;-62
2023/07/02 06:22:58;;;;;;;9.30;8.00;;;717.10;2124.80;;;;;;5051222;28;20056;-60
2023/07/02 06:25:23;;;;;;;9.90;8.00;;;717.10;2073.60;;;;;;5051863;28;20032;-61
2023/07/02 06:27:49;;;;;;;9.60;8.13;;;717.50;2048.00;;;;;;5051671;28;20462;-61
2023/07/02 06:30:15;;;;;;;9.00;7.47;;;743.00;2022.40;;;;;;5051757;28;20033;-61
2023/07/02 06:32:41;;;;;;;9.45;7.82;;;743.10;1945.60;;;;;;5051282;28;20051;-61
2023/07/02 06:35:07;;;;;;;10.55;7.70;;;742.80;2022.40;;;;;;5051488;28;20037;-61
2023/07/02 06:37:33;;;;;;;9.90;7.38;;;742.80;2022.40;;;;;;5050922;28;20037;-62
2023/07/02 06:39:59;;;;;;;8.98;7.50;;;742.80;1996.80;;;;;;5051012;28;20029;-61
2023/07/02 06:42:26;;;;;;;8.95;7.28;;;742.80;1996.80;;;;;;5050176;28;20542;-61
2023/07/02 06:44:51;;;;;;;11.43;7.53;;;742.80;2022.40;;;;;;5051505;28;20029;-62
2023/07/02 06:47:17;;;;;;;10.25;7.95;;;743.00;2022.40;;;;;;5036897;28;20017;-62
2023/07/02 06:49:43;;;;;;;8.65;7.75;;;743.30;1996.80;;;;;;5051001;28;20021;-65
2023/07/02 06:52:09;;;;;;;9.40;8.18;;;768.40;1945.60;;;;;;5041639;28;20040;-60
2023/07/02 06:54:35;;;;;;;9.05;7.72;;;768.40;1971.20;;;;;;5046865;28;20126;-62
2023/07/02 06:57:01;;;;;;;11.77;8.00;;;768.60;1894.40;;;;;;5039795;28;20033;-62
2023/07/02 06:59:26;;;;;;;9.05;8.15;;;768.50;1920.00;;;;;;5031121;28;20037;-61
2023/07/02 07:01:52;;;;;;;8.52;7.63;;;768.50;1920.00;;;;;;5043515;28;20036;-61
2023/07/02 07:04:18;;;;;;;8.80;7.80;;;768.60;1920.00;;;;;;5039365;28;20540;-61
2023/07/02 07:06:44;;;;;;;8.88;7.95;;;768.40;1894.40;;;;;;5050477;28;20051;-61
2023/07/02 07:09:09;;;;;;;9.00;7.30;;;768.30;1920.00;;;;;;5050272;28;20078;-61
2023/07/02 07:11:35;;;;;;;8.57;7.28;;;768.00;1920.00;;;;;;5050875;28;20043;-61
2023/07/02 07:14:01;;;;;;;9.40;7.40;;;743.30;1894.40;;;;;;5050628;28;20039;-61
2023/07/02 07:16:27;;;;;;;10.77;7.43;;;743.10;1920.00;;;;;;5046174;28;20029;-62
2023/07/02 07:18:53;;;;;;;8.10;7.20;;;743.10;1920.00;;;;;;5029377;28;20033;-61
2023/07/02 07:21:19;;;;;;;9.98;8.32;;;743.00;1971.20;;;;;;5036683;28;20090;-64
2023/07/02 07:23:44;;;;;;;8.90;7.00;;;768.00;1945.60;;;;;;5032798;28;20052;-62
2023/07/02 07:26:10;;;;;;;8.75;6.88;;;768.40;1920.00;;;;;;5039693;28;20021;-61
2023/07/02 07:28:36;;;;;;;7.65;6.85;;;768.30;1894.40;;;;;;5049912;28;20487;-63
2023/07/02 07:31:02;;;;;;;9.77;8.30;;;768.20;1945.60;;;;;;5050228;28;20035;-62
2023/07/02 07:33:28;;;;;;;8.50;7.53;;;742.90;1971.20;;;;;;5050259;28;20029;-63
2023/07/02 07:35:53;;;;;;;8.25;7.45;;;743.10;1971.20;;;;;;5050522;28;20021;-61
2023/07/02 07:38:19;;;;;;;9.95;8.38;;;768.40;1894.40;;;;;;5049587;28;20083;-66
2023/07/02 07:40:45;;;;;;;9.63;7.55;;;768.30;1894.40;;;;;;5050364;28;20029;-61
2023/07/02 07:43:11;;;;;;;8.50;7.22;;;768.10;1894.40;;;;;;5049650;28;20481;-61
2023/07/02 07:45:37;;;;;;;9.48;7.32;;;743.20;1920.00;;;;;;5045211;28;20032;-62
2023/07/02 07:48:04;;;;;;;9.32;8.27;;;742.90;1920.00;;;;;;5029988;28;20025;-61
2023/07/02 07:50:30;;;;;;;8.73;7.53;;;742.80;1971.20;;;;;;5023736;28;20091;-65
2023/07/02 07:52:55;;;;;;;11.25;7.32;;;717.70;1996.80;;;;;;5049713;28;20021;-61
2023/07/02 07:55:21;;;;;;;8.25;7.10;;;716.90;2048.00;;;;;;5049736;28;20048;-61
2023/07/02 07:57:47;;;;;;;8.80;7.75;;;692.00;2022.40;;;;;;5048942;28;20036;-63
2023/07/02 08:00:13;;;;;;;8.40;7.55;;;691.70;2073.60;;;;;;5049088;28;20471;-66
2023/07/02 08:02:39;;;;;;;10.43;7.70;;;691.60;2099.20;;;;;;5049564;28;20024;-62
2023/07/02 08:05:05;;;;;;;7.88;7.07;;;691.40;2099.20;;;;;;5049477;28;20421;-62
2023/07/02 08:07:32;;;;;;;8.95;6.50;;;691.30;2048.00;;;;;;5049422;28;20025;-66
2023/07/02 08:09:58;;;;;;;8.20;6.97;;;691.20;2073.60;;;;;;5049048;28;20570;-63
2023/07/02 08:12:24;;;;;;;10.20;7.10;;;666.50;2099.20;;;;;;5049586;28;20025;-63
2023/07/02 08:14:49;;;;;;;13.48;7.13;;;666.50;2099.20;;;;;;5049585;28;20021;-63
2023/07/02 08:17:15;;;;;;;9.10;7.35;;;666.50;2099.20;;;;;;5049729;28;20029;-63
2023/07/02 08:19:41;;;;;;;11.27;7.78;;;691.20;2099.20;;;;;;5049245;28;20039;-63
2023/07/02 08:22:07;;;;;;;9.65;7.72;;;691.20;2099.20;;;;;;5049536;28;20032;-62
2023/07/02 08:24:33;;;;;;;10.13;7.90;;;691.50;2073.60;;;;;;5049038;28;20024;-65
2023/07/02 08:27:01;;;;;;;8.73;6.80;;;691.70;2048.00;;;;;;5048918;28;20033;-63
2023/07/02 08:29:26;;;;;;;8.45;7.35;;;691.40;2073.60;;;;;;5047067;28;20025;-63
2023/07/02 08:31:52;;;;;;;10.73;8.15;;;691.80;2073.60;;;;;;5037816;28;20467;-62
2023/07/02 08:34:18;;;;;;;10.68;7.63;;;692.10;2073.60;;;;;;5048700;28;20560;-63
2023/07/02 08:36:44;;;;;;;8.65;7.75;;;717.20;2048.00;;;;;;5041169;28;20079;-63
2023/07/02 08:39:10;;;;;;;8.93;7.47;;;717.50;2022.40;;;;;;5043510;28;20047;-62
2023/07/02 08:41:47;;;;;;;9.75;7.45;;;717.60;1996.80;;;;;;5049111;28;20017;-63
2023/07/02 08:44:13;;;;;;;15.05;7.60;;;742.80;1971.20;;;;;;5049228;28;20534;-62
2023/07/02 08:46:42;;;;;;;10.57;8.18;;;768.30;1945.60;;;;;;5049081;28;20478;-63
2023/07/02 08:49:08;;;;;;;9.52;8.25;;;768.90;1894.40;;;;;;5049070;28;20044;-63
2023/07/02 08:51:35;;;;;;;9.32;8.43;;;793.70;1920.00;;;;;;5049137;28;20029;-63
2023/07/02 08:54:04;;;;;;;13.05;8.18;;;793.70;1920.00;;;;;;5048994;28;20436;-67
2023/07/02 08:56:30;;;;;;;10.30;8.20;;;793.80;1945.60;;;;;;5048603;28;20036;-63
2023/07/02 08:58:56;;;;;;;10.00;8.20;;;793.60;1894.40;;;;;;5048654;28;20025;-63
2023/07/02 09:01:22;;;;;;;9.20;8.13;;;768.30;1894.40;;;;;;5041122;28;20033;-62
2023/07/02 09:03:49;;;;;;;12.15;8.75;;;768.30;1894.40;;;;;;5041839;28;20075;-63
2023/07/02 09:06:18;;;;;;;8.00;7.10;;;768.60;1945.60;;;;;;5049316;28;20036;-65
2023/07/02 09:08:44;;;;;;;9.13;8.00;;;793.80;1894.40;;;;;;5047675;28;20032;-62
2023/07/02 09:11:15;;;;;;;8.63;7.68;;;794.00;1868.80;;;;;;5051679;28;20118;-63
2023/07/02 09:13:52;;;;;;;11.52;8.02;;;794.10;1868.80;;;;;;5052330;28;20111;-61
2023/07/02 09:16:44;;;;;;;11.45;7.97;;;768.90;1868.80;;;;;;5052817;28;20489;-65
2023/07/02 09:19:12;;;;;;;10.65;8.63;;;768.60;1920.00;;;;;;5052057;28;20091;-62
2023/07/02 09:21:48;;;;;;;10.60;8.68;;;743.00;1996.80;;;;;;5052500;28;20032;-63
2023/07/02 09:24:18;;;;;;;12.50;8.10;;;742.80;1996.80;;;;;;5049965;28;20021;-62
2023/07/02 09:26:53;;;;;;;7.82;7.03;;;742.90;1996.80;;;;;;5042750;28;20372;-62
2023/07/02 09:29:30;;;;;;;10.15;7.88;;;743.00;1971.20;;;;;;5052440;28;20029;-62
2023/07/02 09:31:59;;;;;;;10.48;8.63;;;743.10;1945.60;;;;;;5052537;28;20033;-63
2023/07/02 09:34:32;;;;;;;10.43;8.15;;;743.30;1971.20;;;;;;5052377;28;20096;-62
2023/07/02 09:36:59;;;;;;;9.82;8.15;;;768.50;1945.60;;;;;;5052155;28;20395;-63
2023/07/02 09:39:29;;;;;;;9.88;8.88;;;768.30;1920.00;;;;;;5052740;28;20099;-62
2023/07/02 09:41:57;;;;;;;9.75;8.75;;;768.90;1920.00;;;;;;5052537;28;20063;-62
2023/07/02 09:44:32;;;;;;;10.85;8.48;;;794.00;1920.00;;;;;;5044042;28;20028;-62
2023/07/02 09:47:02;;;;;;;11.57;7.50;;;768.90;1868.80;;;;;;5047979;28;20029;-63
2023/07/02 09:49:33;;;;;;;8.95;8.05;;;743.30;1894.40;;;;;;5052264;28;20150;-63
2023/07/02 09:52:04;;;;;;;10.02;8.38;;;743.20;1945.60;;;;;;5051838;28;20467;-63
2023/07/02 09:54:30;;;;;;;11.93;9.20;;;742.90;2073.60;;;;;;5052134;28;20471;-63
2023/07/02 09:56:58;;;;;;;12.50;8.57;;;742.50;2099.20;;;;;;5052624;28;20036;-62
2023/07/02 09:59:24;;;;;;;12.70;9.48;;;717.50;2099.20;;;;;;5052823;28;20075;-63
2023/07/02 10:01:50;;;;;;;12.98;9.18;;;717.40;2176.00;;;;;;5040296;28;20033;-63
2023/07/02 10:04:18;;;;;;;10.13;9.10;;;717.20;2201.60;;;;;;5052066;28;20403;-63
2023/07/02 10:06:45;;;;;;;10.60;9.45;;;717.00;2227.20;;;;;;5051971;28;20028;-63
2023/07/02 10:09:11;;;;;;;12.55;10.75;;;716.90;2201.60;;;;;;5051675;28;20146;-63
2023/07/02 10:11:36;;;;;;;12.52;10.43;;;692.10;2176.00;;;;;;5051592;28;20116;-64
2023/07/02 10:14:02;;;;;;;10.82;9.73;;;691.90;2201.60;;;;;;5052039;28;20054;-63
2023/07/02 10:16:28;;;;;;;10.10;8.48;;;691.90;2201.60;;;;;;5038295;28;20026;-63
2023/07/02 10:18:54;;;;;;;13.32;9.43;;;691.70;2176.00;;;;;;5052028;28;20151;-63
2023/07/02 10:21:20;;;;;;;12.38;9.40;;;691.90;2201.60;;;;;;5051070;28;20020;-62
2023/07/02 10:23:46;;;;;;;11.90;9.25;;;692.10;2150.40;;;;;;5051869;28;20366;-62
2023/07/02 10:26:19;;;;;;;10.25;7.75;;;692.10;2150.40;;;;;;5051678;28;20104;-62
2023/07/02 10:29:00;;;;;;;10.77;8.40;;;691.90;2124.80;;;;;;5051754;28;20017;-62
2023/07/02 10:31:26;;;;;;;11.60;8.55;;;692.10;2099.20;;;;;;5047115;28;20032;-62
2023/07/02 10:33:52;;;;;;;10.43;8.98;;;717.00;2099.20;;;;;;5042932;28;20025;-62
2023/07/02 10:36:23;;;;;;;11.35;8.73;;;717.40;2099.20;;;;;;5050839;28;20032;-63
2023/07/02 10:38:49;;;;;;;12.10;9.98;;;742.40;2150.40;;;;;;5050924;28;20056;-63
2023/07/02 10:41:29;;;;;;;12.48;8.32;;;742.60;2099.20;;;;;;5051283;28;20032;-62
2023/07/02 10:44:08;;;;;;;11.32;8.77;;;742.60;2048.00;;;;;;5051103;28;20532;-63
2023/07/02 10:46:35;;;;;;;10.40;9.30;;;742.50;2022.40;;;;;;5051265;28;20028;-63
2023/07/02 10:49:00;;;;;;;10.70;9.25;;;742.50;2099.20;;;;;;5049085;28;20025;-63
2023/07/02 10:51:28;;;;;;;11.07;9.57;;;742.40;2048.00;;;;;;5040031;28;20063;-62
2023/07/02 10:54:04;;;;;;;12.32;10.00;;;717.60;2048.00;;;;;;5050888;28;20025;-63
2023/07/02 10:56:30;;;;;;;13.50;10.15;;;742.40;2073.60;;;;;;5051017;28;20024;-63
2023/07/02 10:58:56;;;;;;;10.38;9.27;;;742.50;2176.00;;;;;;5050922;28;20374;-63
2023/07/02 11:01:29;;;;;;;10.77;8.13;;;742.40;2176.00;;;;;;5051198;28;20025;-63
2023/07/02 11:04:06;;;;;;;11.15;9.10;;;742.40;2073.60;;;;;;5050821;28;20029;-62
2023/07/02 11:06:33;;;;;;;10.85;9.75;;;717.70;2048.00;;;;;;5050717;28;20055;-62
2023/07/02 11:09:01;;;;;;;11.18;9.63;;;742.40;2150.40;;;;;;5050520;28;20450;-62
2023/07/02 11:11:27;;;;;;;13.25;9.88;;;742.60;2099.20;;;;;;5050644;28;20062;-62
2023/07/02 11:13:54;;;;;;;12.93;9.77;;;742.80;2073.60;;;;;;5050685;28;20546;-62
2023/07/02 11:16:26;;;;;;;11.07;8.68;;;742.80;2073.60;;;;;;5050743;28;20037;-62
2023/07/02 11:19:08;;;;;;;9.50;8.60;;;743.10;2022.40;;;;;;5025488;28;20029;-63
2023/07/02 11:21:35;;;;;;;11.97;9.60;;;768.10;1945.60;;;;;;5050366;28;20439;-63
2023/07/02 11:24:06;;;;;;;11.57;10.15;;;768.40;1971.20;;;;;;5050095;28;20266;-63
2023/07/02 11:26:36;;;;;;;13.10;9.88;;;768.90;1945.60;;;;;;5046820;28;20025;-63
2023/07/02 11:29:02;;;;;;;10.57;9.55;;;768.90;1945.60;;;;;;5041755;28;20078;-63
2023/07/02 11:31:27;;;;;;;13.70;10.57;;;768.90;1971.20;;;;;;5050160;28;20033;-62
2023/07/02 11:33:53;;;;;;;12.02;10.15;;;768.50;1996.80;;;;;;5050070;28;20386;-62
2023/07/02 11:36:21;;;;;;;11.40;9.90;;;768.60;2022.40;;;;;;5050033;28;20029;-61
2023/07/02 11:38:48;;;;;;;13.10;11.25;;;768.20;2022.40;;;;;;5049908;28;20506;-62
2023/07/02 11:41:14;;;;;;;12.18;10.88;;;743.20;2048.00;;;;;;5050099;28;20069;-61
2023/07/02 11:43:40;;;;;;;11.70;10.50;;;743.20;2022.40;;;;;;5050077;28;20071;-62
2023/07/02 11:46:06;;;;;;;22.52;11.40;;;768.10;2048.00;;;;;;5050258;28;20017;-61
2023/07/02 11:48:32;;;;;;;11.43;10.23;;;768.40;2022.40;;;;;;5050007;28;20060;-62
2023/07/02 11:50:57;;;;;;;11.60;10.20;;;768.60;2022.40;;;;;;5049730;28;20039;-62
2023/07/02 11:53:23;;;;;;;10.70;9.23;;;768.30;2022.40;;;;;;5049720;28;20056;-62
2023/07/02 11:55:49;;;;;;;10.23;9.00;;;768.70;2022.40;;;;;;5049751;28;20029;-62
2023/07/02 11:58:15;;;;;;;10.90;9.27;;;768.90;2022.40;;;;;;5050116;28;20399;-61
2023/07/02 12:00:41;;;;;;;11.13;9.95;;;793.70;1996.80;;;;;;5049676;28;20017;-62
2023/07/02 12:03:06;;;;;;;13.90;9.40;;;793.70;2022.40;;;;;;5049480;28;20025;-62
2023/07/02 12:05:32;;;;;;;8.90;8.07;;;793.80;1945.60;;;;;;5049356;28;20036;-62
2023/07/02 12:07:58;;;;;;;11.23;8.90;;;793.90;1996.80;;;;;;5049397;28;20123;-62
2023/07/02 12:10:23;;;;;;;11.57;9.68;;;794.00;1971.20;;;;;;5049656;28;20387;-61